createdAt,value
2022-11-05T00:01:48.728Z,66.90
2022-11-05T00:04:34.505Z,68.50
2022-11-05T00:07:25.637Z,65.47
2022-11-05T00:09:58.867Z,62.70
2022-11-05T00:12:44.434Z,63.00
2022-11-05T00:15:31.106Z,66.67
2022-11-05T00:17:59.083Z,67.57
2022-11-05T00:20:27.192Z,66.70
2022-11-05T00:23:18.950Z,66.40
2022-11-05T00:25:55.161Z,65.87
2022-11-05T00:28:23.175Z,64.83
2022-11-05T00:30:53.713Z,64.70
2022-11-05T00:33:21.896Z,64.20
2022-11-05T00:35:49.861Z,64.27
2022-11-05T00:38:17.806Z,65.00
2022-11-05T00:40:46.261Z,60.50
2022-11-05T00:43:31.669Z,62.97
2022-11-05T00:46:01.030Z,60.50
2022-11-05T00:48:46.543Z,61.80
2022-11-05T00:51:14.627Z,61.37
2022-11-05T00:53:42.684Z,63.10
2022-11-05T00:56:10.781Z,61.30
2022-11-05T00:58:38.747Z,63.03
2022-11-05T01:01:08.307Z,62.60
2022-11-05T01:03:38.215Z,63.17
2022-11-05T01:06:11.647Z,61.03
2022-11-05T01:08:40.297Z,61.57
2022-11-05T01:11:13.174Z,62.93
2022-11-05T01:13:41.541Z,63.00
2022-11-05T01:16:11.835Z,61.23
2022-11-05T01:18:40.254Z,64.07
2022-11-05T01:21:12.479Z,68.13
2022-11-05T01:23:40.489Z,69.80
2022-11-05T01:26:08.482Z,69.57
2022-11-05T01:28:36.501Z,71.93
2022-11-05T01:31:04.626Z,70.13
2022-11-05T01:33:34.073Z,70.80
2022-11-05T01:36:02.013Z,71.27
2022-11-05T01:38:30.032Z,72.37
2022-11-05T01:40:58.021Z,72.27
2022-11-05T01:43:26.047Z,71.53
2022-11-05T01:45:57.591Z,74.10
2022-11-05T01:48:30.810Z,76.63
2022-11-05T01:51:04.762Z,75.70
2022-11-05T01:53:38.035Z,73.90
2022-11-05T01:56:10.460Z,74.47
2022-11-05T01:58:43.690Z,77.13
2022-11-05T02:01:12.780Z,79.17
2022-11-05T02:03:41.916Z,77.83
2022-11-05T02:06:12.749Z,78.07
2022-11-05T02:08:53.137Z,78.33
2022-11-05T02:11:21.729Z,78.13
2022-11-05T02:13:50.570Z,78.23
2022-11-05T02:16:29.513Z,79.07
2022-11-05T02:19:08.469Z,81.47
2022-11-05T02:22:06.450Z,81.87
2022-11-05T02:24:57.961Z,82.90
2022-11-05T02:28:08.213Z,83.63
2022-11-05T02:30:46.938Z,86.80
2022-11-05T02:33:33.564Z,87.23
2022-11-05T02:36:29.785Z,86.97
2022-11-05T02:39:09.626Z,87.67
2022-11-05T02:41:48.916Z,87.17
2022-11-05T02:44:28.101Z,88.13
2022-11-05T02:47:05.713Z,86.47
2022-11-05T02:49:42.431Z,87.20
2022-11-05T02:52:17.385Z,84.60
2022-11-05T02:54:50.886Z,82.10
2022-11-05T02:57:20.703Z,77.63
2022-11-05T02:59:48.739Z,76.23
2022-11-05T03:02:18.203Z,72.07
2022-11-05T03:04:46.422Z,65.90
2022-11-05T03:07:31.993Z,60.43
2022-11-05T03:10:19.015Z,56.90
2022-11-05T03:12:58.226Z,46.57
2022-11-05T03:15:46.964Z,43.40
2022-11-05T03:18:20.098Z,40.10
2022-11-05T03:20:51.888Z,32.77
2022-11-05T03:23:28.812Z,30.50
2022-11-05T03:26:02.426Z,28.67
2022-11-05T03:28:35.712Z,27.67
2022-11-05T03:31:05.631Z,26.17
2022-11-05T03:33:37.800Z,26.37
2022-11-05T03:36:13.995Z,26.67
2022-11-05T03:38:47.198Z,27.23
2022-11-05T03:41:17.305Z,28.07
2022-11-05T03:43:50.482Z,27.70
2022-11-05T03:46:21.699Z,28.23
2022-11-05T03:48:55.376Z,29.10
2022-11-05T03:51:33.549Z,28.37
2022-11-05T03:54:04.201Z,28.70
2022-11-05T03:56:37.283Z,28.97
2022-11-05T03:59:07.602Z,28.80
2022-11-05T04:01:38.147Z,27.97
2022-11-05T04:04:08.662Z,28.10
2022-11-05T04:06:54.405Z,27.60
2022-11-05T04:09:40.095Z,27.87
2022-11-05T04:12:27.392Z,27.30
2022-11-05T04:14:55.445Z,27.80
2022-11-05T04:17:22.611Z,27.13
2022-11-05T04:20:09.641Z,27.37
2022-11-05T04:22:55.473Z,28.30
2022-11-05T04:25:23.878Z,28.43
2022-11-05T04:27:52.325Z,28.27
2022-11-05T04:30:20.338Z,28.40
2022-11-05T04:33:03.326Z,28.67
2022-11-05T04:35:34.828Z,28.40
2022-11-05T04:38:03.098Z,28.63
2022-11-05T04:40:31.219Z,28.50
2022-11-05T04:42:59.230Z,28.33
2022-11-05T04:45:29.809Z,27.60
2022-11-05T04:47:57.997Z,28.23
2022-11-05T04:50:25.926Z,27.67
2022-11-05T04:52:55.269Z,27.93
2022-11-05T04:55:23.337Z,28.27
2022-11-05T04:57:52.514Z,28.33
2022-11-05T05:00:22.084Z,28.90
2022-11-05T05:02:50.349Z,28.67
2022-11-05T05:05:18.440Z,28.60
2022-11-05T05:07:46.466Z,28.43
2022-11-05T05:10:15.869Z,27.53
2022-11-05T05:12:43.910Z,26.70
2022-11-05T05:15:11.908Z,26.50
2022-11-05T05:17:39.913Z,26.23
2022-11-05T05:20:25.967Z,25.27
2022-11-05T05:22:54.279Z,24.90
2022-11-05T05:25:24.414Z,24.73
2022-11-05T05:27:52.578Z,24.20
2022-11-05T05:30:20.660Z,23.00
2022-11-05T05:32:48.711Z,22.60
2022-11-05T05:35:17.027Z,22.57
2022-11-05T05:37:45.613Z,22.57
2022-11-05T05:40:13.627Z,22.37
2022-11-05T05:42:43.663Z,22.27
2022-11-05T05:45:12.887Z,22.27
2022-11-05T05:47:40.907Z,22.23
2022-11-05T05:50:09.360Z,22.50
2022-11-05T05:52:37.369Z,22.00
2022-11-05T05:55:05.920Z,22.77
2022-11-05T05:57:35.098Z,23.70
2022-11-05T06:00:05.685Z,24.43
2022-11-05T06:02:40.080Z,25.03
2022-11-05T06:05:08.628Z,26.30
2022-11-05T06:07:37.619Z,26.83
2022-11-05T06:10:07.437Z,27.20
2022-11-05T06:12:35.421Z,27.97
2022-11-05T06:15:05.387Z,29.00
2022-11-05T06:17:34.379Z,29.50
2022-11-05T06:20:02.477Z,29.83
2022-11-05T06:22:30.500Z,30.90
2022-11-05T06:24:58.697Z,31.70
2022-11-05T06:27:26.731Z,33.67
2022-11-05T06:29:54.724Z,35.37
2022-11-05T06:32:24.241Z,36.13
2022-11-05T06:34:52.241Z,37.07
2022-11-05T06:37:20.340Z,38.67
2022-11-05T06:39:48.381Z,40.30
2022-11-05T06:42:18.992Z,41.33
2022-11-05T06:44:47.770Z,42.23
2022-11-05T06:47:15.798Z,43.23
2022-11-05T06:49:45.181Z,45.10
2022-11-05T06:52:14.073Z,46.47
2022-11-05T06:54:42.818Z,47.30
2022-11-05T06:57:12.146Z,48.50
2022-11-05T06:59:40.830Z,50.57
2022-11-05T07:02:12.813Z,51.80
2022-11-05T07:04:40.868Z,53.03
2022-11-05T07:07:10.357Z,53.90
2022-11-05T07:09:40.594Z,54.07
2022-11-05T07:12:08.982Z,54.87
2022-11-05T07:14:36.971Z,56.70
2022-11-05T07:17:05.309Z,57.27
2022-11-05T07:19:33.363Z,58.93
2022-11-05T07:22:01.369Z,60.17
2022-11-05T07:24:30.755Z,61.47
2022-11-05T07:26:58.698Z,62.87
2022-11-05T07:29:26.799Z,65.33
2022-11-05T07:31:54.804Z,66.03
2022-11-05T07:34:22.773Z,66.40
2022-11-05T07:36:50.738Z,67.00
2022-11-05T07:39:18.688Z,67.97
2022-11-05T07:41:48.078Z,68.00
2022-11-05T07:44:17.636Z,68.47
2022-11-05T07:46:45.761Z,68.57
2022-11-05T07:49:13.726Z,69.10
2022-11-05T07:51:41.757Z,69.60
2022-11-05T07:54:09.719Z,69.70
2022-11-05T07:56:38.010Z,68.47
2022-11-05T07:59:07.741Z,68.67
2022-11-05T08:01:35.834Z,70.07
2022-11-05T08:04:03.995Z,68.53
2022-11-05T08:06:32.806Z,69.17
2022-11-05T08:09:01.047Z,69.20
2022-11-05T08:11:29.108Z,69.90
2022-11-05T08:13:57.184Z,69.47
2022-11-05T08:16:26.611Z,69.30
2022-11-05T08:18:54.638Z,68.67
2022-11-05T08:21:22.688Z,69.93
2022-11-05T08:23:50.720Z,70.50
2022-11-05T08:26:19.551Z,69.77
2022-11-05T08:28:47.541Z,70.70
2022-11-05T08:31:17.819Z,71.70
2022-11-05T08:33:47.116Z,71.87
2022-11-05T08:36:15.124Z,70.30
2022-11-05T08:38:43.262Z,71.60
2022-11-05T08:41:11.274Z,72.07
2022-11-05T08:43:39.256Z,72.37
2022-11-05T08:46:07.446Z,71.33
2022-11-05T08:48:35.522Z,72.60
2022-11-05T08:51:05.096Z,73.83
2022-11-05T08:53:33.121Z,72.90
2022-11-05T08:56:01.142Z,73.23
2022-11-05T08:58:30.358Z,74.00
2022-11-05T09:01:04.403Z,73.57
2022-11-05T09:03:33.079Z,75.30
2022-11-05T09:06:01.056Z,75.50
2022-11-05T09:08:30.521Z,75.63
2022-11-05T09:10:58.518Z,78.60
2022-11-05T09:13:27.171Z,76.93
2022-11-05T09:15:55.339Z,80.17
2022-11-05T09:18:23.408Z,77.90
2022-11-05T09:20:51.360Z,77.13
2022-11-05T09:23:19.501Z,77.90
2022-11-05T09:25:49.407Z,77.93
2022-11-05T09:28:20.371Z,78.37
2022-11-05T09:30:50.728Z,78.20
2022-11-05T09:33:20.568Z,79.77
2022-11-05T09:35:48.599Z,79.40
2022-11-05T09:38:16.849Z,78.27
2022-11-05T09:40:53.289Z,78.47
2022-11-05T09:43:31.257Z,78.57
2022-11-05T09:46:03.820Z,78.43
2022-11-05T09:48:34.495Z,77.83
2022-11-05T09:51:02.672Z,76.73
2022-11-05T09:53:30.719Z,74.27
2022-11-05T09:56:02.156Z,70.87
2022-11-05T09:58:38.977Z,73.03
2022-11-05T10:01:12.456Z,73.03
2022-11-05T10:03:46.836Z,71.43
2022-11-05T10:06:20.901Z,73.30
2022-11-05T10:08:52.829Z,73.90
2022-11-05T10:11:27.191Z,75.63
2022-11-05T10:14:00.402Z,75.90
2022-11-05T10:16:34.603Z,76.17
2022-11-05T10:19:09.928Z,75.43
2022-11-05T10:22:04.940Z,75.13
2022-11-05T10:24:26.951Z,76.77
2022-11-05T10:26:57.445Z,75.20
2022-11-05T10:29:30.484Z,75.40
2022-11-05T10:32:00.587Z,74.03
2022-11-05T10:34:32.123Z,73.07
2022-11-05T10:37:00.196Z,73.60
2022-11-05T10:39:28.781Z,71.77
2022-11-05T10:42:11.550Z,70.80
2022-11-05T10:44:45.316Z,70.67
2022-11-05T10:47:36.384Z,69.20
2022-11-05T10:50:09.957Z,69.77
2022-11-05T10:52:41.129Z,69.80
2022-11-05T10:55:18.201Z,70.57
2022-11-05T10:57:49.482Z,70.57
2022-11-05T11:00:28.322Z,70.80
2022-11-05T11:02:59.320Z,71.27
2022-11-05T11:05:31.272Z,71.40
2022-11-05T11:08:05.431Z,73.03
2022-11-05T11:10:42.550Z,70.87
2022-11-05T11:13:22.375Z,70.00
2022-11-05T11:15:51.233Z,70.37
2022-11-05T11:18:29.231Z,69.20
2022-11-05T11:21:07.816Z,70.77
2022-11-05T11:23:40.961Z,70.90
2022-11-05T11:26:10.253Z,69.93
2022-11-05T11:28:44.882Z,69.70
2022-11-05T11:31:16.412Z,69.50
2022-11-05T11:33:49.214Z,68.83
2022-11-05T11:36:20.555Z,68.87
2022-11-05T11:38:48.930Z,69.83
2022-11-05T11:41:26.801Z,71.20
2022-11-05T11:44:00.719Z,71.03
2022-11-05T11:46:33.954Z,70.83
2022-11-05T11:49:02.161Z,70.87
2022-11-05T11:51:35.163Z,70.97
2022-11-05T11:54:04.258Z,71.60
2022-11-05T11:56:44.629Z,72.23
2022-11-05T11:59:40.479Z,73.77
2022-11-05T12:02:35.457Z,75.97
2022-11-05T12:05:24.324Z,75.93
2022-11-05T12:07:54.514Z,74.50
2022-11-05T12:10:35.327Z,75.97
2022-11-05T12:13:30.792Z,77.40
2022-11-05T12:16:08.883Z,77.07
2022-11-05T12:18:48.866Z,79.20
2022-11-05T12:21:41.066Z,79.33
2022-11-05T12:24:30.041Z,79.70
2022-11-05T12:27:13.449Z,79.40
2022-11-05T12:29:52.322Z,79.80
2022-11-05T12:32:48.975Z,79.50
2022-11-05T12:35:35.854Z,79.27
2022-11-05T12:38:12.151Z,82.07
2022-11-05T12:41:07.029Z,81.73
2022-11-05T12:43:43.481Z,81.00
2022-11-05T12:46:30.385Z,80.53
2022-11-05T12:49:22.116Z,81.87
2022-11-05T12:52:01.638Z,83.37
2022-11-05T12:54:42.000Z,83.00
2022-11-05T12:57:13.395Z,83.23
2022-11-05T12:59:44.825Z,81.57
2022-11-05T13:02:22.217Z,82.40
2022-11-05T13:04:55.442Z,81.47
2022-11-05T13:07:29.236Z,82.13
2022-11-05T13:10:02.326Z,81.77
2022-11-05T13:12:34.706Z,80.80
2022-11-05T13:15:07.914Z,80.17
2022-11-05T13:17:52.806Z,80.03
2022-11-05T13:20:23.981Z,81.10
2022-11-05T13:22:56.665Z,80.07
2022-11-05T13:25:26.782Z,78.07
2022-11-05T13:28:02.963Z,77.63
2022-11-05T13:30:34.806Z,76.70
2022-11-05T13:33:07.059Z,77.03
2022-11-05T13:35:42.740Z,75.33
2022-11-05T13:38:36.914Z,76.20
2022-11-05T13:41:21.740Z,76.63
2022-11-05T13:44:11.531Z,78.37
2022-11-05T13:46:56.768Z,77.77
2022-11-05T13:49:55.414Z,77.47
2022-11-05T13:52:40.652Z,78.77
2022-11-05T13:55:27.304Z,78.77
2022-11-05T13:58:42.849Z,79.20
2022-11-05T14:01:21.138Z,78.83
2022-11-05T14:03:51.569Z,80.63
2022-11-05T14:06:26.434Z,78.97
2022-11-05T14:08:59.270Z,79.33
2022-11-05T14:11:30.436Z,79.90
2022-11-05T14:14:02.543Z,79.83
2022-11-05T14:16:49.307Z,79.70
2022-11-05T14:19:34.470Z,82.23
2022-11-05T14:22:39.396Z,81.90
2022-11-05T14:25:43.325Z,82.23
2022-11-05T14:28:42.526Z,83.40
2022-11-05T14:32:02.486Z,83.90
2022-11-05T14:34:24.984Z,85.37
2022-11-05T14:37:18.870Z,85.43
2022-11-05T14:39:47.876Z,86.60
2022-11-05T14:42:21.321Z,85.93
2022-11-05T14:45:21.300Z,86.37
2022-11-05T14:47:55.300Z,86.87
2022-11-05T14:50:31.900Z,87.40
2022-11-05T14:53:07.991Z,86.20
2022-11-05T14:55:38.896Z,86.60
2022-11-05T14:58:26.888Z,87.90
2022-11-05T15:00:57.434Z,86.53
2022-11-05T15:03:42.706Z,86.13
2022-11-05T15:06:29.619Z,89.77
2022-11-05T15:09:19.363Z,90.87
2022-11-05T15:11:58.444Z,90.10
2022-11-05T15:14:31.797Z,90.07
2022-11-05T15:17:09.447Z,91.73
2022-11-05T15:19:40.087Z,91.43
2022-11-05T15:22:19.491Z,88.47
2022-11-05T15:24:48.937Z,88.50
2022-11-05T15:27:23.705Z,87.10
2022-11-05T15:29:51.841Z,88.47
2022-11-05T15:32:34.612Z,88.63
2022-11-05T15:35:20.227Z,88.73
2022-11-05T15:37:54.687Z,88.50
2022-11-05T15:40:27.863Z,88.77
2022-11-05T15:43:17.613Z,87.70
2022-11-05T15:45:59.283Z,87.00
2022-11-05T15:48:28.718Z,86.93
2022-11-05T15:50:57.276Z,85.30
2022-11-05T15:54:02.208Z,86.03
2022-11-05T15:56:29.829Z,85.70
2022-11-05T15:59:02.043Z,84.73
2022-11-05T16:01:32.919Z,84.40
2022-11-05T16:04:12.739Z,84.97
2022-11-05T16:06:43.629Z,82.87
2022-11-05T16:09:22.938Z,83.73
2022-11-05T16:12:12.299Z,83.27
2022-11-05T16:14:40.769Z,84.57
2022-11-05T16:17:19.487Z,85.73
2022-11-05T16:19:49.838Z,84.97
2022-11-05T16:22:18.664Z,85.40
2022-11-05T16:24:47.240Z,85.30
2022-11-05T16:27:19.615Z,85.23
2022-11-05T16:29:51.356Z,83.60
2022-11-05T16:32:29.920Z,83.17
2022-11-05T16:35:01.924Z,82.83
2022-11-05T16:37:36.949Z,83.50
2022-11-05T16:40:14.233Z,80.93
2022-11-05T16:42:43.383Z,78.70
2022-11-05T16:45:14.847Z,75.93
2022-11-05T16:47:44.134Z,68.80
2022-11-05T16:50:19.703Z,67.33
2022-11-05T16:52:48.264Z,67.03
2022-11-05T16:55:17.929Z,66.27
2022-11-05T16:57:49.337Z,65.33
2022-11-05T17:00:19.182Z,66.47
2022-11-05T17:02:47.584Z,64.37
2022-11-05T17:05:24.149Z,64.40
2022-11-05T17:07:52.278Z,62.43
2022-11-05T17:10:21.056Z,63.30
2022-11-05T17:12:49.442Z,62.50
2022-11-05T17:15:20.308Z,62.57
2022-11-05T17:17:49.041Z,63.40
2022-11-05T17:20:38.292Z,63.63
2022-11-05T17:23:10.824Z,65.30
2022-11-05T17:25:40.624Z,65.33
2022-11-05T17:28:11.232Z,66.00
2022-11-05T17:30:41.850Z,64.43
2022-11-05T17:33:11.856Z,63.80
2022-11-05T17:35:43.219Z,63.87
2022-11-05T17:38:13.000Z,66.43
2022-11-05T17:40:42.218Z,65.00
2022-11-05T17:43:11.786Z,64.33
2022-11-05T17:45:44.393Z,64.53
2022-11-05T17:48:12.780Z,64.77
2022-11-05T17:50:43.195Z,64.13
2022-11-05T17:53:12.081Z,65.73
2022-11-05T17:55:41.706Z,65.13
2022-11-05T17:58:09.795Z,65.20
2022-11-05T18:00:38.305Z,66.30
2022-11-05T18:03:06.422Z,65.77
2022-11-05T18:05:35.726Z,64.40
2022-11-05T18:08:05.913Z,64.13
2022-11-05T18:10:33.925Z,62.20
2022-11-05T18:13:02.018Z,61.30
2022-11-05T18:15:30.172Z,59.97
2022-11-05T18:17:58.142Z,59.83
2022-11-05T18:20:26.148Z,58.97
2022-11-05T18:22:54.141Z,58.03
2022-11-05T18:25:23.540Z,57.33
2022-11-05T18:27:51.542Z,56.70
2022-11-05T18:30:19.620Z,55.90
2022-11-05T18:32:48.092Z,55.20
2022-11-05T18:35:16.093Z,54.03
2022-11-05T18:37:44.126Z,52.77
2022-11-05T18:40:13.116Z,51.90
2022-11-05T18:42:42.931Z,51.33
2022-11-05T18:45:12.381Z,51.10
2022-11-05T18:47:40.480Z,50.50
2022-11-05T18:50:10.575Z,50.97
2022-11-05T18:52:38.699Z,50.77
2022-11-05T18:55:08.059Z,52.13
2022-11-05T18:57:36.122Z,52.57
2022-11-05T19:00:06.577Z,51.80
2022-11-05T19:02:35.109Z,50.50
2022-11-05T19:07:51.478Z,49.17
2022-11-05T19:10:19.722Z,49.10
2022-11-05T19:12:47.933Z,48.30
2022-11-05T19:15:17.353Z,48.33
2022-11-05T19:17:45.417Z,47.57
2022-11-05T19:20:13.825Z,47.47
2022-11-05T19:22:41.886Z,47.07
2022-11-05T19:25:09.893Z,45.63
2022-11-05T19:27:38.716Z,46.57
2022-11-05T19:30:07.675Z,46.77
2022-11-05T19:32:37.241Z,48.23
2022-11-05T19:35:05.764Z,47.67
2022-11-05T19:37:33.792Z,48.20
2022-11-05T19:40:01.831Z,48.37
2022-11-05T19:42:29.786Z,47.63
2022-11-05T19:45:06.829Z,48.20
2022-11-05T19:47:46.383Z,48.20
2022-11-05T19:50:14.441Z,49.10
2022-11-05T19:52:42.434Z,49.23
2022-11-05T19:55:12.235Z,48.93
2022-11-05T19:57:40.570Z,48.97
2022-11-05T20:00:10.038Z,48.33
2022-11-05T20:02:38.865Z,49.93
2022-11-05T20:05:08.883Z,47.93
2022-11-05T20:07:37.038Z,49.30
2022-11-05T20:10:05.706Z,48.90
2022-11-05T20:12:34.509Z,48.20
2022-11-05T20:15:02.576Z,49.27
2022-11-05T20:17:30.609Z,51.03
2022-11-05T20:19:58.901Z,50.67
2022-11-05T20:22:28.813Z,49.13
2022-11-05T20:24:57.351Z,48.33
2022-11-05T20:27:25.322Z,48.03
2022-11-05T20:29:53.293Z,46.57
2022-11-05T20:32:21.322Z,45.80
2022-11-05T20:34:49.321Z,46.70
2022-11-05T20:37:17.385Z,45.50
2022-11-05T20:39:46.863Z,44.47
2022-11-05T20:42:14.871Z,44.83
2022-11-05T20:44:42.788Z,44.73
2022-11-05T20:47:11.583Z,44.40
2022-11-05T20:49:39.567Z,45.13
2022-11-05T20:52:07.625Z,45.23
2022-11-05T20:54:35.742Z,44.67
2022-11-05T20:57:05.167Z,44.70
2022-11-05T20:59:33.487Z,45.47
2022-11-05T21:02:01.749Z,46.80
2022-11-05T21:04:29.875Z,46.63
2022-11-05T21:06:57.917Z,47.20
2022-11-05T21:09:25.892Z,47.00
2022-11-05T21:12:11.753Z,47.03
2022-11-05T21:14:43.308Z,47.53
2022-11-05T21:17:13.053Z,48.07
2022-11-05T21:19:41.067Z,47.97
2022-11-05T21:22:09.188Z,46.87
2022-11-05T21:24:37.360Z,46.47
2022-11-05T21:27:05.488Z,46.40
2022-11-05T21:29:33.664Z,45.43
2022-11-05T21:32:02.997Z,44.50
2022-11-05T21:34:30.999Z,43.90
2022-11-05T21:36:59.327Z,43.70
2022-11-05T21:39:27.795Z,43.83
2022-11-05T21:41:55.791Z,42.30
2022-11-05T21:44:23.829Z,42.13
2022-11-05T21:46:52.538Z,41.30
2022-11-05T21:49:22.032Z,41.80
2022-11-05T21:52:07.605Z,41.73
2022-11-05T21:54:53.113Z,41.73
2022-11-05T21:57:39.313Z,42.10
2022-11-05T22:00:09.437Z,42.03
2022-11-05T22:02:38.089Z,41.33
2022-11-05T22:05:08.914Z,41.40
2022-11-05T22:07:40.031Z,41.33
2022-11-05T22:10:14.860Z,41.03
2022-11-05T22:12:44.685Z,41.27
2022-11-05T22:15:13.168Z,41.23
2022-11-05T22:17:46.223Z,41.93
2022-11-05T22:20:16.686Z,42.40
2022-11-05T22:22:44.808Z,41.93
2022-11-05T22:25:14.375Z,42.37
2022-11-05T22:27:43.945Z,42.63
2022-11-05T22:30:13.757Z,43.10
2022-11-05T22:32:41.931Z,43.10
2022-11-05T22:35:10.739Z,43.17
2022-11-05T22:37:40.174Z,42.27
2022-11-05T22:40:09.708Z,41.97
2022-11-05T22:42:37.877Z,42.80
2022-11-05T22:45:06.896Z,43.17
2022-11-05T22:47:34.898Z,42.10
2022-11-05T22:50:02.962Z,42.37
2022-11-05T22:52:31.028Z,43.30
2022-11-05T22:55:02.636Z,42.83
2022-11-05T22:57:30.668Z,43.37
2022-11-05T22:59:58.584Z,44.07
2022-11-05T23:02:26.835Z,42.77
2022-11-05T23:04:54.919Z,43.40
2022-11-05T23:07:40.624Z,44.73
2022-11-05T23:10:27.816Z,45.17
2022-11-05T23:12:55.976Z,46.03
2022-11-05T23:15:41.556Z,45.50
2022-11-05T23:18:28.033Z,46.60
2022-11-05T23:21:13.528Z,47.87
2022-11-05T23:23:59.144Z,47.17
2022-11-05T23:26:45.946Z,47.03
2022-11-05T23:29:13.990Z,48.93
2022-11-05T23:31:59.144Z,49.13
2022-11-05T23:34:27.329Z,48.97
2022-11-05T23:37:12.560Z,48.30
2022-11-05T23:39:42.894Z,48.67
2022-11-05T23:42:30.657Z,47.67
2022-11-05T23:45:16.419Z,48.33
2022-11-05T23:48:02.005Z,48.30
2022-11-05T23:50:35.434Z,47.70
2022-11-05T23:53:06.680Z,49.10
2022-11-05T23:55:34.668Z,48.43
2022-11-05T23:58:04.212Z,47.80
